Time;durP1;ratioP1;P1;durP2;ratioP2;P2;SDS_P1;SDS_P2;PMS_P1;PMS_P2;Temp;Humidity;BMP_temperature;BMP_pressure;BME280_temperature;BME280_humidity;BME280_pressure;Samples;Min_cycle;Max_cycle;Signal;HPM_P1;HPM_P2
2024/01/11 00:00:03;;;;;;;18.25;7.93;;;;;;;-5.11;77.80;100551.69;341040;28;5602;-74
2024/01/11 00:00:16;;;;;;;17.65;8.07;;;;;;;-5.20;78.36;100551.31;337156;28;18265;-74
2024/01/11 00:00:28;;;;;;;17.00;7.97;;;;;;;-5.13;78.10;100555.81;340094;28;4779;-74
2024/01/11 00:00:40;;;;;;;17.23;7.57;;;;;;;-5.05;78.28;100557.03;336350;28;18219;-74
2024/01/11 00:00:53;;;;;;;19.23;7.93;;;;;;;-4.96;78.25;100552.38;338458;28;5611;-74
2024/01/11 00:01:10;;;;;;;19.83;8.55;;;;;;;-4.88;78.71;100557.81;338529;28;13433;-74
2024/01/11 00:01:23;;;;;;;22.25;8.95;;;;;;;-4.79;78.77;100550.56;336103;28;18199;-74
2024/01/11 00:01:35;;;;;;;22.90;8.75;;;;;;;-4.74;78.82;100553.34;334692;28;16845;-74
2024/01/11 00:01:48;;;;;;;21.80;8.57;;;;;;;-4.70;78.59;100551.00;339441;28;4594;-74
2024/01/11 00:02:00;;;;;;;19.88;8.25;;;;;;;-4.70;78.26;100553.53;333502;28;12894;-74
2024/01/11 00:02:12;;;;;;;18.50;8.13;;;;;;;-4.68;78.45;100556.13;340632;28;4673;-74
2024/01/11 00:02:25;;;;;;;18.90;8.40;;;;;;;-4.69;78.37;100554.38;329797;28;4571;-74
2024/01/11 00:02:37;;;;;;;20.50;8.27;;;;;;;-4.73;78.00;100552.53;341397;28;4561;-74
2024/01/11 00:02:50;;;;;;;18.70;8.43;;;;;;;-4.82;77.76;100553.84;336500;28;13294;-74
2024/01/11 00:03:02;;;;;;;17.75;8.48;;;;;;;-4.83;77.74;100557.22;338015;28;4727;-74
2024/01/11 00:03:15;;;;;;;18.38;8.50;;;;;;;-4.85;78.17;100557.94;333301;28;14254;-74
2024/01/11 00:03:27;;;;;;;22.40;8.73;;;;;;;-4.92;77.54;100556.78;340178;28;4659;-74
2024/01/11 00:03:39;;;;;;;21.48;8.05;;;;;;;-5.03;77.85;100555.44;336519;28;4976;-74
2024/01/11 00:03:51;;;;;;;18.40;7.38;;;;;;;-5.01;78.15;100556.38;335764;28;18372;-74
2024/01/11 00:04:03;;;;;;;18.58;7.47;;;;;;;-4.97;78.32;100558.28;339279;28;5822;-74
2024/01/11 00:04:16;;;;;;;18.83;7.70;;;;;;;-4.95;78.01;100549.06;336390;28;13744;-74
2024/01/11 00:04:28;;;;;;;20.05;8.02;;;;;;;-5.04;78.71;100556.25;337461;28;19359;-74
2024/01/11 00:04:41;;;;;;;17.75;7.88;;;;;;;-5.03;79.16;100555.44;337155;28;13285;-74
2024/01/11 00:04:53;;;;;;;19.35;7.93;;;;;;;-5.02;79.54;100554.66;336088;28;18275;-74
2024/01/11 00:05:06;;;;;;;19.77;7.88;;;;;;;-5.01;80.59;100556.38;333083;28;4682;-74
2024/01/11 00:05:19;;;;;;;20.23;8.10;;;;;;;-4.94;80.89;100558.41;336191;28;18230;-74
2024/01/11 00:05:31;;;;;;;20.42;8.05;;;;;;;-4.90;80.48;100557.72;334488;28;18540;-74
2024/01/11 00:05:44;;;;;;;17.67;7.30;;;;;;;-4.84;80.69;100560.53;338246;28;4559;-74
2024/01/11 00:05:56;;;;;;;15.00;7.10;;;;;;;-4.78;80.32;100554.88;335131;28;18287;-74
2024/01/11 00:06:08;;;;;;;15.70;7.53;;;;;;;-4.76;80.22;100547.34;338613;28;4930;-74
2024/01/11 00:06:21;;;;;;;15.68;7.47;;;;;;;-4.72;80.88;100554.28;338305;28;17293;-74
2024/01/11 00:06:42;;;;;;;17.67;8.07;;;;;;;-4.68;80.57;100556.13;339431;28;5095;-74
2024/01/11 00:06:54;;;;;;;16.63;7.82;;;;;;;-4.65;80.74;100553.72;336250;28;17406;-74
2024/01/11 00:07:07;;;;;;;14.23;7.25;;;;;;;-4.61;80.34;100553.03;335156;28;18122;-74
2024/01/11 00:07:19;;;;;;;15.32;7.43;;;;;;;-4.56;80.29;100555.81;340059;28;4652;-74
2024/01/11 00:07:32;;;;;;;16.30;7.13;;;;;;;-4.53;80.48;100559.31;337102;28;18100;-74
2024/01/11 00:07:44;;;;;;;18.65;7.45;;;;;;;-4.48;80.09;100555.31;338425;28;4759;-74
2024/01/11 00:07:57;;;;;;;18.67;8.10;;;;;;;-4.44;80.48;100549.56;332052;28;13409;-74
2024/01/11 00:08:11;;;;;;;18.38;8.10;;;;;;;-4.40;79.84;100554.78;337967;28;17766;-74
2024/01/11 00:08:23;;;;;;;19.63;7.88;;;;;;;-4.38;80.28;100556.56;334330;28;18870;-74
2024/01/11 00:08:35;;;;;;;19.15;8.10;;;;;;;-4.38;80.31;100555.72;337517;28;4974;-74
2024/01/11 00:08:47;;;;;;;19.73;8.07;;;;;;;-4.35;80.29;100558.38;337293;28;18367;-74
2024/01/11 00:08:59;;;;;;;18.85;7.95;;;;;;;-4.34;79.98;100555.03;337448;28;4811;-74
2024/01/11 00:09:11;;;;;;;20.35;8.10;;;;;;;-4.34;80.28;100547.44;337260;28;13448;-74
2024/01/11 00:09:24;;;;;;;19.85;7.70;;;;;;;-4.32;80.06;100553.44;335720;28;16895;-74
2024/01/11 00:09:41;;;;;;;18.77;8.00;;;;;;;-4.30;79.92;100555.22;338805;28;10473;-74
2024/01/11 00:09:53;;;;;;;19.35;8.38;;;;;;;-4.30;79.98;100554.38;333129;28;17914;-74
2024/01/11 00:10:05;;;;;;;22.13;8.20;;;;;;;-4.30;80.08;100551.81;338466;28;5295;-74
2024/01/11 00:10:18;;;;;;;20.35;8.10;;;;;;;-4.35;80.00;100558.38;338665;28;17892;-74
2024/01/11 00:10:30;;;;;;;19.42;8.00;;;;;;;-4.36;80.05;100552.44;335311;28;5227;-74
2024/01/11 00:10:42;;;;;;;16.88;8.05;;;;;;;-4.33;80.01;100549.16;341383;28;4528;-74
2024/01/11 00:10:54;;;;;;;17.35;7.93;;;;;;;-4.33;80.27;100556.75;332239;28;17956;-74
2024/01/11 00:11:08;;;;;;;17.40;7.50;;;;;;;-4.33;80.07;100554.22;337944;28;17869;-74
2024/01/11 00:11:20;;;;;;;15.63;6.93;;;;;;;-4.31;80.03;100557.69;340798;28;5519;-74
2024/01/11 00:11:32;;;;;;;15.65;7.30;;;;;;;-4.28;79.83;100552.75;338081;28;13523;-74
2024/01/11 00:11:44;;;;;;;19.70;8.38;;;;;;;-4.27;79.82;100554.47;335589;28;18308;-74
2024/01/11 00:11:56;;;;;;;23.08;8.65;;;;;;;-4.28;80.03;100548.53;338005;28;5740;-74
2024/01/11 00:12:09;;;;;;;21.77;8.25;;;;;;;-4.29;80.18;100561.16;332190;28;5222;-74
2024/01/11 00:12:21;;;;;;;20.40;7.57;;;;;;;-4.29;79.98;100558.63;338414;28;4700;-74
2024/01/11 00:12:33;;;;;;;19.30;7.32;;;;;;;-4.38;80.20;100555.72;331451;28;12205;-74
2024/01/11 00:12:46;;;;;;;20.55;7.70;;;;;;;-4.37;80.35;100553.22;338926;28;17615;-74
2024/01/11 00:12:58;;;;;;;17.70;7.97;;;;;;;-4.34;79.87;100562.66;334947;28;5280;-74
2024/01/11 00:13:10;;;;;;;17.23;7.63;;;;;;;-4.38;80.26;100560.78;338593;28;17914;-74
2024/01/11 00:13:22;;;;;;;18.27;8.10;;;;;;;-4.37;80.34;100559.97;340939;28;5148;-74
2024/01/11 00:13:34;;;;;;;20.08;8.60;;;;;;;-4.45;80.04;100560.53;337196;28;18218;-74
2024/01/11 00:13:47;;;;;;;18.60;7.97;;;;;;;-4.43;80.44;100566.53;331054;28;5400;-74
2024/01/11 00:13:59;;;;;;;20.25;8.18;;;;;;;-4.40;80.36;100552.25;337602;28;13194;-74
2024/01/11 00:14:11;;;;;;;20.10;8.13;;;;;;;-4.40;80.14;100563.25;338598;28;5631;-74
2024/01/11 00:14:23;;;;;;;18.25;7.82;;;;;;;-4.38;80.11;100563.34;339188;28;5018;-74
2024/01/11 00:14:35;;;;;;;15.70;7.00;;;;;;;-4.36;80.19;100564.25;336765;28;18233;-74
2024/01/11 00:14:47;;;;;;;14.48;6.63;;;;;;;-4.37;80.02;100562.50;339831;28;4572;-74
2024/01/11 00:15:00;;;;;;;15.00;6.72;;;;;;;-4.37;80.24;100560.84;332978;28;17697;-74
2024/01/11 00:15:12;;;;;;;14.98;6.38;;;;;;;-4.35;80.35;100560.91;339445;28;5476;-74
2024/01/11 00:15:25;;;;;;;14.18;6.70;;;;;;;-4.33;79.99;100559.31;332780;28;15850;-74
2024/01/11 00:15:37;;;;;;;16.38;7.50;;;;;;;-4.33;79.82;100562.69;340033;28;5391;-74
2024/01/11 00:15:49;;;;;;;16.67;8.05;;;;;;;-4.31;79.93;100560.22;341432;28;4851;-74
2024/01/11 00:16:01;;;;;;;16.55;7.95;;;;;;;-4.29;80.04;100556.09;337289;28;17972;-74
2024/01/11 00:16:13;;;;;;;18.05;7.65;;;;;;;-4.28;79.69;100558.69;340507;28;4529;-74
2024/01/11 00:16:26;;;;;;;18.55;7.47;;;;;;;-4.26;79.46;100559.63;336106;28;18229;-74
2024/01/11 00:16:38;;;;;;;21.50;8.38;;;;;;;-4.23;79.68;100558.88;340630;28;4553;-74
2024/01/11 00:16:52;;;;;;;20.67;8.90;;;;;;;-4.22;79.46;100558.94;337690;28;4979;-74
2024/01/11 00:17:04;;;;;;;20.88;8.73;;;;;;;-4.20;79.72;100561.56;341188;28;5345;-74
2024/01/11 00:17:16;;;;;;;19.73;8.05;;;;;;;-4.21;79.28;100553.06;338489;28;18528;-74
2024/01/11 00:17:28;;;;;;;18.83;8.00;;;;;;;-4.22;79.17;100560.63;339661;28;5273;-74
2024/01/11 00:17:40;;;;;;;17.70;7.97;;;;;;;-4.23;79.02;100554.66;336685;28;18177;-74
2024/01/11 00:17:53;;;;;;;17.73;7.13;;;;;;;-4.23;79.16;100556.34;339359;28;4766;-74
2024/01/11 00:18:06;;;;;;;17.48;7.35;;;;;;;-4.26;78.74;100554.56;338563;28;18139;-74
2024/01/11 00:18:19;;;;;;;18.25;7.60;;;;;;;-4.23;78.90;100556.34;331061;28;18067;-74
2024/01/11 00:18:31;;;;;;;22.25;8.30;;;;;;;-4.23;78.95;100553.81;336257;28;16165;-74
2024/01/11 00:18:44;;;;;;;23.20;8.45;;;;;;;-4.21;79.02;100554.72;334992;28;5229;-74
2024/01/11 00:18:57;;;;;;;19.23;8.38;;;;;;;-4.18;79.39;100554.00;337632;28;17872;-74
2024/01/11 00:19:09;;;;;;;17.08;8.15;;;;;;;-4.19;78.89;100558.19;341377;28;4884;-74
2024/01/11 00:19:22;;;;;;;17.25;7.82;;;;;;;-4.17;79.09;100555.72;337012;28;14381;-74
2024/01/11 00:19:34;;;;;;;18.35;7.70;;;;;;;-4.16;79.32;100553.25;335553;28;5045;-74
2024/01/11 00:19:48;;;;;;;18.15;8.02;;;;;;;-4.17;79.60;100559.13;337960;28;17656;-74
2024/01/11 00:20:01;;;;;;;18.85;8.38;;;;;;;-4.17;79.60;100554.06;332335;28;4664;-74
2024/01/11 00:20:13;;;;;;;16.08;8.07;;;;;;;-4.17;79.45;100555.72;340150;28;4579;-74
2024/01/11 00:20:25;;;;;;;17.00;7.60;;;;;;;-4.16;79.39;100560.03;339603;28;6977;-74
2024/01/11 00:20:37;;;;;;;17.45;7.55;;;;;;;-4.15;79.48;100554.13;340277;28;13921;-74
2024/01/11 00:20:49;;;;;;;18.20;8.05;;;;;;;-4.23;79.17;100553.81;341534;28;4677;-74
2024/01/11 00:21:01;;;;;;;16.55;7.97;;;;;;;-4.28;78.83;100547.69;339279;28;17983;-74
2024/01/11 00:21:13;;;;;;;15.35;7.43;;;;;;;-4.28;79.18;100555.31;336097;28;4671;-74
2024/01/11 00:21:26;;;;;;;16.65;7.53;;;;;;;-4.32;78.51;100551.75;340888;28;5393;-74
2024/01/11 00:21:38;;;;;;;17.63;8.27;;;;;;;-4.33;78.91;100552.53;329045;28;18272;-74
2024/01/11 00:21:53;;;;;;;16.52;8.02;;;;;;;-4.31;78.57;100552.63;337780;28;17766;-74
2024/01/11 00:22:05;;;;;;;17.13;7.80;;;;;;;-4.35;78.31;100554.16;341476;28;4694;-74
2024/01/11 00:22:17;;;;;;;17.73;7.50;;;;;;;-4.31;78.04;100552.63;338045;28;18966;-74
2024/01/11 00:22:29;;;;;;;18.55;8.10;;;;;;;-4.31;78.07;100555.16;341329;28;5337;-74
2024/01/11 00:22:42;;;;;;;16.27;7.97;;;;;;;-4.30;78.32;100549.28;335518;28;5092;-74
2024/01/11 00:22:54;;;;;;;15.32;7.78;;;;;;;-4.33;77.76;100549.16;341649;28;4520;-74
2024/01/11 00:23:06;;;;;;;14.98;7.63;;;;;;;-4.31;77.46;100545.00;338980;28;5193;-74
2024/01/11 00:23:18;;;;;;;15.27;7.22;;;;;;;-4.35;77.64;100548.22;336535;28;18238;-74
2024/01/11 00:23:30;;;;;;;15.90;6.93;;;;;;;-4.36;77.29;100554.13;339094;28;4674;-74
2024/01/11 00:23:42;;;;;;;16.05;6.93;;;;;;;-4.35;77.80;100545.69;336036;28;4651;-74
2024/01/11 00:23:54;;;;;;;15.00;7.00;;;;;;;-4.33;78.06;100549.16;335920;28;5197;-74
2024/01/11 00:24:07;;;;;;;14.43;6.72;;;;;;;-4.36;77.74;100549.03;338213;28;4958;-74
2024/01/11 00:24:19;;;;;;;14.02;6.63;;;;;;;-4.34;77.56;100547.44;336499;28;19080;-74
2024/01/11 00:24:31;;;;;;;16.88;6.80;;;;;;;-4.37;76.85;100547.28;339056;28;5057;-74
2024/01/11 00:24:49;;;;;;;17.92;7.22;;;;;;;-4.43;76.48;100548.78;335282;28;18094;-74
2024/01/11 00:25:03;;;;;;;19.60;7.30;;;;;;;-4.47;76.82;100546.88;340149;28;4537;-74
2024/01/11 00:25:16;;;;;;;18.65;7.03;;;;;;;-4.46;76.81;100543.56;334562;28;18020;-74
2024/01/11 00:25:28;;;;;;;18.92;7.03;;;;;;;-4.55;76.75;100553.31;332294;28;18094;-74
2024/01/11 00:25:41;;;;;;;19.45;7.85;;;;;;;-4.54;76.45;100560.13;338773;28;4587;-74
2024/01/11 00:25:53;;;;;;;17.80;8.52;;;;;;;-4.55;76.75;100548.22;334814;28;18292;-74
2024/01/11 00:26:05;;;;;;;18.27;8.45;;;;;;;-4.55;76.66;100550.78;334498;28;4821;-74
2024/01/11 00:26:18;;;;;;;19.20;8.07;;;;;;;-4.55;76.58;100549.91;337585;28;4588;-74
2024/01/11 00:26:30;;;;;;;17.42;7.22;;;;;;;-4.55;77.03;100555.84;340944;28;5189;-74
2024/01/11 00:26:42;;;;;;;15.75;7.05;;;;;;;-4.51;77.13;100547.56;339995;28;4605;-74
2024/01/11 00:26:54;;;;;;;19.92;7.78;;;;;;;-4.47;77.10;100546.03;335552;28;17882;-74
2024/01/11 00:27:06;;;;;;;18.33;7.65;;;;;;;-4.55;76.56;100543.16;334903;28;4616;-74
2024/01/11 00:27:18;;;;;;;15.85;7.38;;;;;;;-4.55;76.64;100548.22;337030;28;5383;-74
2024/01/11 00:27:30;;;;;;;16.85;7.53;;;;;;;-4.58;76.40;100552.34;337031;28;18264;-74
2024/01/11 00:27:43;;;;;;;16.27;7.80;;;;;;;-4.55;76.56;100550.78;340168;28;4638;-74
2024/01/11 00:27:56;;;;;;;14.05;7.63;;;;;;;-4.58;76.81;100553.19;335574;28;18482;-73
2024/01/11 00:28:08;;;;;;;17.38;7.82;;;;;;;-4.61;76.70;100553.03;340331;28;4671;-74
2024/01/11 00:28:20;;;;;;;18.73;7.70;;;;;;;-4.66;77.28;100547.78;338007;28;18285;-74
2024/01/11 00:28:32;;;;;;;18.00;7.88;;;;;;;-4.67;77.09;100550.25;341353;28;4486;-74
2024/01/11 00:28:44;;;;;;;16.92;7.40;;;;;;;-4.67;77.05;100547.72;336448;28;5332;-74
2024/01/11 00:28:56;;;;;;;19.63;7.55;;;;;;;-4.70;77.63;100558.59;338822;28;18313;-74
2024/01/11 00:29:08;;;;;;;20.20;7.20;;;;;;;-4.71;78.00;100553.47;341362;28;4657;-74
2024/01/11 00:29:20;;;;;;;18.55;6.80;;;;;;;-4.76;78.76;100552.41;338430;28;17884;-74
2024/01/11 00:29:33;;;;;;;15.50;6.82;;;;;;;-4.72;78.99;100545.00;341307;28;5562;-74
2024/01/11 00:29:45;;;;;;;16.35;6.97;;;;;;;-4.65;78.70;100556.25;340235;28;9329;-74
2024/01/11 00:29:57;;;;;;;16.67;7.15;;;;;;;-4.63;78.97;100549.56;342547;28;6025;-74
2024/01/11 00:30:09;;;;;;;16.33;6.90;;;;;;;-4.59;79.14;100551.44;339796;28;4646;-74
2024/01/11 00:30:23;;;;;;;16.17;7.15;;;;;;;-4.55;78.72;100553.31;340180;28;6044;-74
2024/01/11 00:30:35;;;;;;;18.65;7.95;;;;;;;-4.54;78.78;100554.19;337230;28;18795;-74
2024/01/11 00:30:47;;;;;;;18.25;8.18;;;;;;;-4.50;78.76;100551.84;333862;28;4950;-74
2024/01/11 00:30:59;;;;;;;16.60;8.05;;;;;;;-4.49;78.60;100557.78;337904;28;8305;-74
2024/01/11 00:31:12;;;;;;;18.20;8.20;;;;;;;-4.47;79.16;100556.19;331960;28;16020;-74
2024/01/11 00:31:24;;;;;;;18.20;7.57;;;;;;;-4.45;79.43;100547.84;338190;28;12523;-74
2024/01/11 00:31:38;;;;;;;17.50;7.03;;;;;;;-4.42;78.95;100549.63;328614;28;17149;-74
2024/01/11 00:31:51;;;;;;;17.90;7.18;;;;;;;-4.37;78.64;100552.38;338836;28;5503;-74
2024/01/11 00:32:03;;;;;;;15.88;7.00;;;;;;;-4.35;78.95;100551.63;336375;28;18906;-74
2024/01/11 00:32:15;;;;;;;16.52;7.03;;;;;;;-4.31;78.77;100552.63;337879;28;13485;-74
2024/01/11 00:32:27;;;;;;;15.45;6.57;;;;;;;-4.28;78.59;100553.63;337688;28;4907;-74
2024/01/11 00:32:40;;;;;;;15.60;6.65;;;;;;;-4.25;78.25;100557.94;335204;28;14031;-75
2024/01/11 00:32:53;;;;;;;15.70;6.85;;;;;;;-4.28;78.53;100557.84;336581;28;4853;-74
2024/01/11 00:33:06;;;;;;;16.75;7.55;;;;;;;-4.28;78.68;100547.69;335193;28;4704;-75
2024/01/11 00:33:18;;;;;;;16.55;7.63;;;;;;;-4.25;78.44;100551.19;336496;28;17253;-74
2024/01/11 00:33:31;;;;;;;15.25;7.22;;;;;;;-4.21;78.43;100554.72;334124;28;12507;-74
2024/01/11 00:33:43;;;;;;;14.25;7.35;;;;;;;-4.19;78.30;100554.81;337225;28;4565;-74
2024/01/11 00:33:55;;;;;;;15.25;7.35;;;;;;;-4.19;78.35;100558.19;338928;28;4601;-74
2024/01/11 00:34:07;;;;;;;16.38;7.03;;;;;;;-4.27;79.08;100555.34;334911;28;18053;-74
2024/01/11 00:34:20;;;;;;;16.35;7.07;;;;;;;-4.36;79.19;100554.13;337410;28;5057;-74
2024/01/11 00:34:33;;;;;;;17.42;7.50;;;;;;;-4.36;79.47;100556.66;329692;28;18004;-74
2024/01/11 00:34:45;;;;;;;18.02;7.68;;;;;;;-4.34;79.83;100557.59;338398;28;5880;-74
2024/01/11 00:34:57;;;;;;;18.15;7.80;;;;;;;-4.32;79.88;100553.44;330808;28;18288;-74
2024/01/11 00:35:09;;;;;;;19.20;7.30;;;;;;;-4.31;79.50;100562.78;340347;28;4526;-74
2024/01/11 00:35:21;;;;;;;19.25;7.75;;;;;;;-4.30;79.15;100559.44;338677;28;5148;-74
2024/01/11 00:35:33;;;;;;;18.23;7.82;;;;;;;-4.28;79.25;100553.63;341386;28;4523;-74
2024/01/11 00:35:46;;;;;;;20.92;8.43;;;;;;;-4.33;79.48;100556.75;340472;28;5119;-74
2024/01/11 00:35:58;;;;;;;19.48;7.47;;;;;;;-4.33;79.40;100559.31;333081;28;16592;-74
2024/01/11 00:36:10;;;;;;;17.92;7.13;;;;;;;-4.35;79.58;100558.38;341383;28;4555;-74
2024/01/11 00:36:22;;;;;;;17.92;7.35;;;;;;;-4.33;79.56;100555.09;337664;28;14832;-75
2024/01/11 00:36:36;;;;;;;19.17;7.93;;;;;;;-4.38;79.56;100558.25;341468;28;4649;-74
2024/01/11 00:36:48;;;;;;;16.48;7.10;;;;;;;-4.44;79.63;100551.25;338786;28;18249;-74
2024/01/11 00:37:01;;;;;;;17.38;7.10;;;;;;;-4.53;79.59;100554.25;341099;28;4627;-74
2024/01/11 00:37:13;;;;;;;17.23;7.40;;;;;;;-4.54;79.80;100555.06;338783;28;18283;-74
2024/01/11 00:37:25;;;;;;;17.88;7.93;;;;;;;-4.53;80.20;100551.69;335835;28;5562;-74
2024/01/11 00:37:37;;;;;;;20.00;8.05;;;;;;;-4.48;80.04;100555.31;335856;28;18379;-74
2024/01/11 00:37:50;;;;;;;20.83;8.07;;;;;;;-4.50;79.73;100556.94;341071;28;4786;-74
2024/01/11 00:38:03;;;;;;;18.48;7.88;;;;;;;-4.49;79.94;100568.78;339261;28;18230;-74
2024/01/11 00:38:15;;;;;;;15.15;7.22;;;;;;;-4.51;79.81;100559.38;340789;28;5142;-74
2024/01/11 00:38:27;;;;;;;13.68;7.00;;;;;;;-4.47;79.59;100553.63;338018;28;19254;-74
2024/01/11 00:38:39;;;;;;;16.65;7.28;;;;;;;-4.46;79.50;100560.47;340694;28;18603;-74
2024/01/11 00:38:51;;;;;;;17.95;7.63;;;;;;;-4.49;79.45;100561.19;335490;28;4728;-75
2024/01/11 00:39:06;;;;;;;16.25;7.05;;;;;;;-4.46;79.22;100557.94;334385;28;18935;-74
2024/01/11 00:39:18;;;;;;;17.80;7.38;;;;;;;-4.45;79.32;100555.47;338282;28;13792;-74
2024/01/11 00:39:30;;;;;;;16.92;7.22;;;;;;;-4.40;79.22;100557.31;341310;28;4622;-74
2024/01/11 00:39:43;;;;;;;14.90;7.25;;;;;;;-4.44;78.98;100559.72;336023;28;9097;-75
2024/01/11 00:39:55;;;;;;;15.82;6.85;;;;;;;-4.45;78.46;100558.00;340908;28;4624;-74
2024/01/11 00:40:08;;;;;;;17.27;7.25;;;;;;;-4.44;78.24;100562.25;339047;28;10573;-75
2024/01/11 00:40:20;;;;;;;16.63;7.25;;;;;;;-4.42;78.02;100563.19;335702;28;18172;-74
2024/01/11 00:40:32;;;;;;;17.63;7.90;;;;;;;-4.44;77.92;100564.78;338179;28;4892;-74
2024/01/11 00:40:44;;;;;;;18.23;7.40;;;;;;;-4.50;77.74;100562.00;335290;28;18224;-74
2024/01/11 00:40:56;;;;;;;18.05;8.20;;;;;;;-4.50;77.56;100559.47;339703;28;4514;-74
2024/01/11 00:41:09;;;;;;;17.15;8.20;;;;;;;-4.49;77.50;100561.19;336669;28;16529;-74
2024/01/11 00:41:21;;;;;;;18.00;7.97;;;;;;;-4.51;77.50;100560.25;337655;28;4613;-74
2024/01/11 00:41:34;;;;;;;19.73;8.02;;;;;;;-4.53;77.16;100564.38;337460;28;5010;-74
2024/01/11 00:41:46;;;;;;;19.13;8.50;;;;;;;-4.51;77.42;100556.84;333053;28;17575;-74
2024/01/11 00:41:59;;;;;;;19.75;8.23;;;;;;;-4.50;77.44;100562.00;337084;28;10461;-74
2024/01/11 00:42:10;;;;;;;20.02;8.25;;;;;;;-4.53;77.20;100561.84;338762;28;4591;-74
2024/01/11 00:42:22;;;;;;;20.13;8.18;;;;;;;-4.54;77.32;100555.06;338255;28;6533;-74
2024/01/11 00:42:35;;;;;;;17.67;8.15;;;;;;;-4.55;77.22;100555.84;335986;28;17807;-75
2024/01/11 00:42:47;;;;;;;16.60;7.57;;;;;;;-4.57;77.29;100557.44;339166;28;4656;-74
2024/01/11 00:42:59;;;;;;;16.98;7.95;;;;;;;-4.57;77.17;100565.06;337200;28;12983;-75
2024/01/11 00:43:11;;;;;;;15.75;7.50;;;;;;;-4.58;77.20;100563.34;334598;28;4813;-74
2024/01/11 00:43:23;;;;;;;15.73;7.05;;;;;;;-4.58;77.02;100563.34;337750;28;5439;-74
2024/01/11 00:43:35;;;;;;;16.75;6.97;;;;;;;-4.60;77.04;100564.09;339663;28;4828;-74
2024/01/11 00:43:47;;;;;;;16.38;7.28;;;;;;;-4.75;77.24;100559.19;341557;28;4601;-74
2024/01/11 00:43:59;;;;;;;14.25;7.30;;;;;;;-4.84;77.32;100555.47;336206;28;18223;-74
2024/01/11 00:44:12;;;;;;;17.05;7.88;;;;;;;-4.91;77.32;100558.53;338521;28;5723;-74
2024/01/11 00:44:24;;;;;;;17.55;7.18;;;;;;;-4.90;77.63;100559.41;341713;28;16932;-74
2024/01/11 00:44:36;;;;;;;16.27;6.83;;;;;;;-4.90;77.91;100554.34;331414;28;18265;-75
2024/01/11 00:44:49;;;;;;;17.23;6.72;;;;;;;-4.96;77.91;100562.53;336679;28;4672;-74
2024/01/11 00:45:01;;;;;;;20.05;7.57;;;;;;;-5.05;77.51;100564.66;337277;28;19037;-74
2024/01/11 00:45:14;;;;;;;19.75;7.20;;;;;;;-5.04;77.69;100556.25;340985;28;5458;-74
2024/01/11 00:45:26;;;;;;;18.33;7.00;;;;;;;-5.13;77.88;100558.38;337641;28;17494;-74
2024/01/11 00:45:38;;;;;;;17.15;7.00;;;;;;;-5.17;77.75;100559.03;341483;28;4680;-74
2024/01/11 00:45:50;;;;;;;18.98;7.25;;;;;;;-5.11;78.10;100554.22;337274;28;18355;-75
2024/01/11 00:46:02;;;;;;;19.83;7.32;;;;;;;-5.06;78.44;100552.78;334979;28;4716;-74
2024/01/11 00:46:15;;;;;;;17.38;6.72;;;;;;;-5.02;78.08;100559.72;336571;28;5375;-74
2024/01/11 00:46:27;;;;;;;18.25;7.07;;;;;;;-5.01;78.27;100553.84;336559;28;17132;-74
2024/01/11 00:46:40;;;;;;;19.50;8.20;;;;;;;-4.95;78.27;100550.72;339636;28;5366;-74
2024/01/11 00:46:53;;;;;;;20.40;8.73;;;;;;;-4.92;78.29;100561.00;337777;28;16446;-74
2024/01/11 00:47:05;;;;;;;18.30;7.72;;;;;;;-4.91;77.93;100555.13;333856;28;16203;-74
2024/01/11 00:47:17;;;;;;;18.77;7.30;;;;;;;-4.90;77.90;100557.72;338379;28;4632;-73
2024/01/11 00:47:29;;;;;;;19.60;7.57;;;;;;;-4.90;77.77;100555.19;338634;28;5370;-74
2024/01/11 00:47:42;;;;;;;19.08;7.68;;;;;;;-4.92;77.99;100559.34;330395;28;4758;-74
2024/01/11 00:47:54;;;;;;;19.30;7.70;;;;;;;-4.92;77.69;100556.78;340211;28;4654;-74
2024/01/11 00:48:06;;;;;;;15.45;7.47;;;;;;;-4.91;77.49;100556.00;337450;28;18152;-74
2024/01/11 00:48:18;;;;;;;15.00;7.05;;;;;;;-4.92;77.30;100556.78;336474;28;18113;-74
2024/01/11 00:48:31;;;;;;;14.88;7.03;;;;;;;-4.92;77.47;100554.25;336729;28;16185;-75
2024/01/11 00:48:43;;;;;;;16.20;7.65;;;;;;;-4.93;77.66;100554.19;336818;28;16882;-74
2024/01/11 00:48:56;;;;;;;17.45;7.85;;;;;;;-5.03;77.62;100558.88;334036;28;18144;-74
2024/01/11 00:49:08;;;;;;;17.73;7.60;;;;;;;-5.04;77.54;100553.72;338061;28;18016;-74
2024/01/11 00:49:21;;;;;;;17.60;7.10;;;;;;;-5.02;77.76;100559.72;329809;28;4916;-74
2024/01/11 00:49:33;;;;;;;14.77;6.45;;;;;;;-5.03;78.02;100558.88;341020;28;4524;-74
2024/01/11 00:49:45;;;;;;;14.55;6.35;;;;;;;-5.05;78.68;100555.41;336448;28;4698;-74
2024/01/11 00:49:57;;;;;;;15.45;6.75;;;;;;;-5.03;79.06;100557.97;338346;28;18339;-74
2024/01/11 00:50:10;;;;;;;15.07;6.82;;;;;;;-5.00;78.99;100555.59;339191;28;5771;-74
2024/01/11 00:50:22;;;;;;;13.75;6.78;;;;;;;-4.94;79.50;100558.41;332930;28;17882;-74
2024/01/11 00:50:35;;;;;;;13.30;6.80;;;;;;;-4.90;79.29;100562.81;341132;28;5492;-74
2024/01/11 00:50:47;;;;;;;15.18;6.88;;;;;;;-4.85;78.95;100560.47;338011;28;18094;-74
2024/01/11 00:50:59;;;;;;;15.77;7.05;;;;;;;-4.80;78.98;100555.59;339038;28;6862;-74
2024/01/11 00:51:12;;;;;;;18.85;8.02;;;;;;;-4.77;79.20;100556.59;337703;28;18337;-74
2024/01/11 00:51:24;;;;;;;17.27;7.95;;;;;;;-4.74;78.82;100556.72;338471;28;5142;-74
2024/01/11 00:51:36;;;;;;;15.02;7.63;;;;;;;-4.71;79.16;100556.00;339260;28;19497;-74
2024/01/11 00:51:48;;;;;;;15.65;7.55;;;;;;;-4.68;79.05;100557.00;336562;28;18015;-74
2024/01/11 00:52:01;;;;;;;15.23;7.38;;;;;;;-4.64;78.97;100560.53;333910;28;5261;-74
2024/01/11 00:52:13;;;;;;;15.43;7.10;;;;;;;-4.60;79.12;100554.81;335815;28;18182;-73
2024/01/11 00:52:26;;;;;;;15.48;7.28;;;;;;;-4.58;78.84;100557.41;340160;28;4522;-74
2024/01/11 00:52:38;;;;;;;16.02;7.88;;;;;;;-4.55;78.68;100553.31;332792;28;18244;-74
2024/01/11 00:52:50;;;;;;;15.73;8.10;;;;;;;-4.54;78.72;100554.19;338145;28;5478;-74
2024/01/11 00:53:03;;;;;;;17.00;7.78;;;;;;;-4.52;78.86;100556.00;327956;28;6171;-75
2024/01/11 00:53:15;;;;;;;16.55;6.68;;;;;;;-4.51;78.71;100560.25;331852;28;17373;-74
2024/01/11 00:53:30;;;;;;;16.17;6.75;;;;;;;-4.50;78.57;100556.06;334800;28;18270;-74
2024/01/11 00:53:43;;;;;;;17.48;7.47;;;;;;;-4.46;79.11;100547.78;336029;28;18942;-74
2024/01/11 00:53:55;;;;;;;19.48;7.78;;;;;;;-4.46;78.63;100548.63;336925;28;5327;-73
2024/01/11 00:54:07;;;;;;;18.38;7.38;;;;;;;-4.43;78.39;100548.78;332243;28;6782;-74
2024/01/11 00:54:19;;;;;;;16.73;7.15;;;;;;;-4.41;78.58;100561.50;338908;28;4707;-74
2024/01/11 00:54:31;;;;;;;15.38;6.63;;;;;;;-4.38;78.81;100550.66;338499;28;13796;-74
2024/01/11 00:54:43;;;;;;;16.58;6.50;;;;;;;-4.50;79.34;100556.94;337517;28;18153;-75
2024/01/11 00:54:55;;;;;;;16.88;6.45;;;;;;;-4.60;79.92;100559.88;338059;28;4634;-74
2024/01/11 00:55:08;;;;;;;18.42;7.00;;;;;;;-4.73;80.55;100553.38;337993;28;6666;-74
2024/01/11 00:55:20;;;;;;;17.83;7.10;;;;;;;-4.78;80.44;100554.00;341600;28;4485;-74
2024/01/11 00:55:32;;;;;;;16.42;6.75;;;;;;;-4.89;81.03;100551.88;341575;28;4655;-74
2024/01/11 00:55:44;;;;;;;13.63;6.13;;;;;;;-4.97;81.75;100558.28;338889;28;17994;-74
2024/01/11 00:56:02;;;;;;;13.30;6.30;;;;;;;-4.92;81.70;100561.88;340906;28;4711;-74
2024/01/11 00:56:18;;;;;;;16.45;7.47;;;;;;;-4.87;81.60;100555.34;331258;28;17556;-74
2024/01/11 00:56:31;;;;;;;17.20;8.18;;;;;;;-4.93;81.71;100555.06;339109;28;18728;-74
2024/01/11 00:56:44;;;;;;;17.23;7.95;;;;;;;-5.07;81.89;100558.63;335625;28;17955;-74
2024/01/11 00:56:56;;;;;;;17.48;7.40;;;;;;;-5.04;82.40;100551.19;340079;28;5598;-74
2024/01/11 00:57:09;;;;;;;17.40;7.50;;;;;;;-4.99;82.63;100553.91;338975;28;17389;-74
2024/01/11 00:57:21;;;;;;;16.77;7.10;;;;;;;-4.92;82.41;100554.25;340995;28;4543;-74
2024/01/11 00:57:33;;;;;;;16.33;6.97;;;;;;;-4.91;82.33;100553.47;338660;28;18374;-74
2024/01/11 00:57:45;;;;;;;15.25;6.90;;;;;;;-4.88;82.08;100556.13;335521;28;4592;-74
2024/01/11 00:57:57;;;;;;;15.65;7.20;;;;;;;-4.84;81.95;100550.38;339050;28;4565;-74
2024/01/11 00:58:10;;;;;;;16.05;7.88;;;;;;;-4.84;82.10;100560.53;336026;28;16051;-74
2024/01/11 00:58:22;;;;;;;16.73;7.57;;;;;;;-4.84;81.61;100555.47;337593;28;4725;-74